createdAt,value
2023-11-25T00:00:08.730Z,98393.40
2023-11-25T00:02:56.849Z,98382.80
2023-11-25T00:05:25.901Z,98387.40
2023-11-25T00:07:54.181Z,98389.20
2023-11-25T00:10:22.685Z,98393.00
2023-11-25T00:12:50.721Z,98400.40
2023-11-25T00:15:18.814Z,98406.60
2023-11-25T00:17:47.036Z,98410.20
2023-11-25T00:20:17.253Z,98407.80
2023-11-25T00:22:45.264Z,98411.40
2023-11-25T00:25:14.121Z,98414.60
2023-11-25T00:27:44.187Z,98415.80
2023-11-25T00:30:12.570Z,98413.40
2023-11-25T00:32:41.372Z,98422.40
2023-11-25T00:35:10.605Z,98427.20
2023-11-25T00:37:40.634Z,98431.40
2023-11-25T00:40:20.994Z,98448.60
2023-11-25T00:42:49.251Z,98451.40
2023-11-25T00:45:17.683Z,98451.60
2023-11-25T00:47:46.663Z,98447.60
2023-11-25T00:50:17.461Z,98449.00
2023-11-25T00:52:46.685Z,98455.40
2023-11-25T00:55:14.983Z,98454.60
2023-11-25T00:57:43.459Z,98453.40
2023-11-25T01:00:17.848Z,98452.40
2023-11-25T01:02:46.810Z,98457.20
2023-11-25T01:05:15.250Z,98463.80
2023-11-25T01:08:02.120Z,98462.40
2023-11-25T01:10:30.177Z,98461.20
2023-11-25T01:12:58.268Z,98457.60
2023-11-25T01:15:26.253Z,98459.40
2023-11-25T01:17:54.322Z,98458.40
2023-11-25T01:20:23.251Z,98456.60
2023-11-25T01:22:51.359Z,98458.40
2023-11-25T01:25:19.666Z,98461.20
2023-11-25T01:27:48.766Z,98454.40
2023-11-25T01:30:16.777Z,98460.00
2023-11-25T01:32:44.834Z,98459.00
2023-11-25T01:35:13.272Z,98460.60
2023-11-25T01:37:41.516Z,98460.20
2023-11-25T01:40:13.218Z,98465.00
2023-11-25T01:42:41.596Z,98466.00
2023-11-25T01:45:14.119Z,98465.40
2023-11-25T01:47:43.907Z,98470.80
2023-11-25T01:50:12.289Z,98472.40
2023-11-25T01:52:42.706Z,98468.60
2023-11-25T01:55:13.128Z,98469.60
2023-11-25T01:57:42.039Z,98473.40
2023-11-25T02:00:15.041Z,98473.20
2023-11-25T02:02:44.295Z,98464.80
2023-11-25T02:05:13.879Z,98465.00
2023-11-25T02:08:01.996Z,98467.40
2023-11-25T02:10:30.198Z,98469.80
2023-11-25T02:12:58.232Z,98467.80
2023-11-25T02:15:26.390Z,98466.60
2023-11-25T02:17:56.024Z,98468.20
2023-11-25T02:20:43.842Z,98465.00
2023-11-25T02:23:21.071Z,98476.00
2023-11-25T02:25:51.140Z,98477.40
2023-11-25T02:28:20.975Z,98471.80
2023-11-25T02:30:50.201Z,98476.40
2023-11-25T02:33:18.432Z,98480.40
2023-11-25T02:35:49.766Z,98478.40
2023-11-25T02:38:18.042Z,98479.00
2023-11-25T02:40:47.182Z,98481.80
2023-11-25T02:43:15.300Z,98485.80
2023-11-25T02:45:44.041Z,98492.40
2023-11-25T02:48:17.152Z,98490.60
2023-11-25T02:50:45.680Z,98496.20
2023-11-25T02:53:13.952Z,98503.60
2023-11-25T02:55:42.451Z,98511.20
2023-11-25T02:58:10.621Z,98512.60
2023-11-25T03:00:41.682Z,98529.40
2023-11-25T03:03:18.504Z,98533.80
2023-11-25T03:05:54.134Z,98542.40
2023-11-25T03:08:24.110Z,98543.20
2023-11-25T03:10:52.511Z,98547.20
2023-11-25T03:13:20.945Z,98548.00
2023-11-25T03:15:49.106Z,98551.20
2023-11-25T03:18:17.288Z,98554.20
2023-11-25T03:20:45.465Z,98565.80
2023-11-25T03:23:14.448Z,98551.60
2023-11-25T03:25:42.782Z,98549.80
2023-11-25T03:28:12.325Z,98545.00
2023-11-25T03:30:42.355Z,98546.80
2023-11-25T03:33:11.383Z,98544.60
2023-11-25T03:35:39.763Z,98549.00
2023-11-25T03:38:08.427Z,98558.80
2023-11-25T03:40:36.800Z,98551.00
2023-11-25T03:43:05.185Z,98554.40
2023-11-25T03:45:33.345Z,98562.40
2023-11-25T03:48:02.687Z,98561.00
2023-11-25T03:50:31.109Z,98567.00
2023-11-25T03:52:59.191Z,98574.60
2023-11-25T03:55:27.237Z,98579.60
2023-11-25T03:57:55.297Z,98577.00
2023-11-25T04:00:24.265Z,98584.80
2023-11-25T04:02:53.068Z,98584.00
2023-11-25T04:05:23.986Z,98592.60
2023-11-25T04:07:54.276Z,98592.00
2023-11-25T04:10:22.867Z,98599.20
2023-11-25T04:12:55.957Z,98593.40
2023-11-25T04:15:24.224Z,98604.60
2023-11-25T04:17:53.011Z,98602.20
2023-11-25T04:20:32.190Z,98600.60
2023-11-25T04:23:08.184Z,98598.20
2023-11-25T04:25:37.880Z,98600.60
2023-11-25T04:28:08.423Z,98606.20
2023-11-25T04:30:37.223Z,98609.60
2023-11-25T04:33:10.928Z,98611.00
2023-11-25T04:35:39.629Z,98611.60
2023-11-25T04:38:08.767Z,98611.40
2023-11-25T04:40:37.850Z,98620.20
2023-11-25T04:43:05.992Z,98631.60
2023-11-25T04:45:34.157Z,98632.80
2023-11-25T04:48:02.487Z,98633.00
2023-11-25T04:50:30.813Z,98622.40
2023-11-25T04:53:00.691Z,98623.40
2023-11-25T04:55:29.522Z,98622.60
2023-11-25T04:57:58.001Z,98627.20
2023-11-25T05:00:26.421Z,98634.80
2023-11-25T05:02:54.853Z,98639.20
2023-11-25T05:05:24.802Z,98644.00
2023-11-25T05:07:53.248Z,98652.60
2023-11-25T05:10:22.030Z,98657.60
2023-11-25T05:12:52.315Z,98666.20
2023-11-25T05:15:24.017Z,98665.20
2023-11-25T05:17:55.110Z,98668.40
2023-11-25T05:20:23.671Z,98664.40
2023-11-25T05:22:51.959Z,98668.80
2023-11-25T05:25:20.085Z,98671.80
2023-11-25T05:27:48.332Z,98673.60
2023-11-25T05:30:16.857Z,98667.60
2023-11-25T05:32:45.352Z,98670.80
2023-11-25T05:35:15.321Z,98667.80
2023-11-25T05:37:45.812Z,98672.40
2023-11-25T05:40:16.281Z,98680.00
2023-11-25T05:42:51.560Z,98678.60
2023-11-25T05:45:21.936Z,98682.00
2023-11-25T05:47:50.073Z,98687.60
2023-11-25T05:50:22.282Z,98692.60
2023-11-25T05:52:52.281Z,98694.80
2023-11-25T05:55:23.774Z,98699.20
2023-11-25T05:57:52.888Z,98695.20
2023-11-25T06:00:23.154Z,98708.80
2023-11-25T06:02:54.281Z,98720.40
2023-11-25T06:05:23.173Z,98712.60
2023-11-25T06:07:51.657Z,98722.80
2023-11-25T06:10:20.662Z,98726.20
2023-11-25T06:12:48.924Z,98728.20
2023-11-25T06:15:20.180Z,98723.20
2023-11-25T06:17:49.299Z,98733.40
2023-11-25T06:20:17.914Z,98742.20
2023-11-25T06:22:46.114Z,98740.40
2023-11-25T06:25:15.491Z,98738.80
2023-11-25T06:27:46.653Z,98745.20
2023-11-25T06:30:16.509Z,98745.20
2023-11-25T06:32:44.674Z,98752.80
2023-11-25T06:35:13.539Z,98756.80
2023-11-25T06:37:42.522Z,98762.60
2023-11-25T06:40:14.537Z,98760.60
2023-11-25T06:42:43.435Z,98765.00
2023-11-25T06:45:11.804Z,98767.80
2023-11-25T06:47:40.506Z,98772.20
2023-11-25T06:50:11.815Z,98768.40
2023-11-25T06:52:39.895Z,98773.40
2023-11-25T06:55:08.616Z,98780.20
2023-11-25T06:57:37.049Z,98780.80
2023-11-25T07:00:10.466Z,98773.20
2023-11-25T07:02:41.255Z,98780.80
2023-11-25T07:05:11.032Z,98780.80
2023-11-25T07:07:58.731Z,98783.60
2023-11-25T07:10:34.034Z,98777.20
2023-11-25T07:13:04.315Z,98777.00
2023-11-25T07:15:33.448Z,98779.60
2023-11-25T07:18:01.725Z,98774.60
2023-11-25T07:20:30.282Z,98782.80
2023-11-25T07:22:58.448Z,98783.20
2023-11-25T07:25:29.407Z,98783.60
2023-11-25T07:27:57.392Z,98791.80
2023-11-25T07:30:25.501Z,98794.60
2023-11-25T07:32:53.652Z,98800.40
2023-11-25T07:35:21.753Z,98805.20
2023-11-25T07:37:49.827Z,98802.00
2023-11-25T07:40:18.100Z,98808.20
2023-11-25T07:42:50.550Z,98797.40
2023-11-25T07:45:19.260Z,98798.20
2023-11-25T07:47:47.565Z,98801.40
2023-11-25T07:50:17.641Z,98816.60
2023-11-25T07:52:46.901Z,98823.00
2023-11-25T07:55:15.271Z,98819.60
2023-11-25T07:57:43.613Z,98824.40
2023-11-25T08:00:19.471Z,98826.00
2023-11-25T08:02:51.193Z,98831.60
2023-11-25T08:05:25.815Z,98841.20
2023-11-25T08:07:55.397Z,98842.00
2023-11-25T08:10:26.244Z,98837.20
2023-11-25T08:12:57.768Z,98834.20
2023-11-25T08:15:27.152Z,98830.60
2023-11-25T08:17:57.440Z,98829.00
2023-11-25T08:20:25.863Z,98823.20
2023-11-25T08:22:54.932Z,98826.00
2023-11-25T08:25:23.413Z,98825.00
2023-11-25T08:27:52.804Z,98821.40
2023-11-25T08:30:22.477Z,98819.60
2023-11-25T08:32:51.043Z,98819.20
2023-11-25T08:35:19.189Z,98822.60
2023-11-25T08:37:49.803Z,98833.80
2023-11-25T08:40:18.973Z,98835.80
2023-11-25T08:42:47.595Z,98832.60
2023-11-25T08:45:16.034Z,98839.80
2023-11-25T08:47:45.066Z,98845.60
2023-11-25T08:50:17.680Z,98842.00
2023-11-25T08:52:48.545Z,98849.60
2023-11-25T08:55:20.006Z,98857.60
2023-11-25T08:57:49.815Z,98860.40
2023-11-25T09:00:22.352Z,98863.20
2023-11-25T09:02:53.674Z,98858.60
2023-11-25T09:05:24.345Z,98862.60
2023-11-25T09:07:54.085Z,98856.40
2023-11-25T09:10:24.995Z,98859.80
2023-11-25T09:12:54.700Z,98858.80
2023-11-25T09:15:23.796Z,98864.60
2023-11-25T09:17:53.109Z,98868.20
2023-11-25T09:20:24.780Z,98872.00
2023-11-25T09:22:53.254Z,98876.00
2023-11-25T09:25:22.487Z,98880.00
2023-11-25T09:27:53.253Z,98872.20
2023-11-25T09:30:21.853Z,98869.20
2023-11-25T09:32:50.703Z,98865.80
2023-11-25T09:35:18.885Z,98872.80
2023-11-25T09:37:49.802Z,98869.80
2023-11-25T09:40:19.738Z,98874.80
2023-11-25T09:42:49.019Z,98869.60
2023-11-25T09:45:19.396Z,98872.00
2023-11-25T09:47:47.745Z,98862.20
2023-11-25T09:50:16.130Z,98866.20
2023-11-25T09:52:54.493Z,98872.80
2023-11-25T09:55:24.879Z,98876.60
2023-11-25T09:58:10.354Z,98884.40
2023-11-25T10:00:41.573Z,98890.80
2023-11-25T10:03:15.325Z,98897.20
2023-11-25T10:05:43.611Z,98906.60
2023-11-25T10:08:11.938Z,98909.40
2023-11-25T10:10:40.129Z,98908.40
2023-11-25T10:13:17.962Z,98909.80
2023-11-25T10:15:48.013Z,98913.00
2023-11-25T10:18:16.638Z,98909.60
2023-11-25T10:20:48.699Z,98911.40
2023-11-25T10:23:23.689Z,98914.80
2023-11-25T10:25:55.098Z,98909.00
2023-11-25T10:28:27.715Z,98902.60
2023-11-25T10:31:05.804Z,98901.00
2023-11-25T10:33:35.614Z,98903.20
2023-11-25T10:36:06.504Z,98897.40
2023-11-25T10:38:34.885Z,98905.00
2023-11-25T10:41:07.390Z,98908.80
2023-11-25T10:43:36.387Z,98913.20
2023-11-25T10:46:09.018Z,98918.20
2023-11-25T10:48:40.898Z,98925.00
2023-11-25T10:51:10.056Z,98926.20
2023-11-25T10:53:40.931Z,98925.80
2023-11-25T10:56:09.171Z,98923.20
2023-11-25T10:58:38.194Z,98922.60
2023-11-25T11:01:06.738Z,98917.00
2023-11-25T11:04:02.552Z,98930.40
2023-11-25T11:06:41.229Z,98931.80
2023-11-25T11:09:11.092Z,98934.80
2023-11-25T11:11:48.729Z,98931.20
2023-11-25T11:14:19.093Z,98932.40
2023-11-25T11:17:25.688Z,98934.20
2023-11-25T11:19:59.393Z,98934.80
2023-11-25T11:22:29.785Z,98932.40
2023-11-25T11:25:20.473Z,98935.00
2023-11-25T11:28:19.746Z,98934.60
2023-11-25T11:31:07.674Z,98927.60
2023-11-25T11:33:36.582Z,98932.20
2023-11-25T11:36:08.689Z,98934.80
2023-11-25T11:38:44.784Z,98926.00
2023-11-25T11:41:14.639Z,98933.00
2023-11-25T11:43:43.004Z,98936.80
2023-11-25T11:46:11.067Z,98941.00
2023-11-25T11:48:39.394Z,98937.80
2023-11-25T11:51:11.698Z,98940.60
2023-11-25T11:53:39.786Z,98938.60
2023-11-25T11:56:08.540Z,98936.40
2023-11-25T11:58:36.680Z,98936.00
2023-11-25T12:01:06.611Z,98931.00
2023-11-25T12:03:37.927Z,98927.80
2023-11-25T12:06:07.463Z,98927.80
2023-11-25T12:08:36.109Z,98933.00
2023-11-25T12:11:06.826Z,98926.60
2023-11-25T12:13:40.185Z,98929.00
2023-11-25T12:16:09.965Z,98931.60
2023-11-25T12:18:38.374Z,98933.20
2023-11-25T12:21:06.944Z,98942.40
2023-11-25T12:26:08.616Z,98948.80
2023-11-25T12:28:44.408Z,98953.40
2023-11-25T12:31:12.623Z,98954.60
2023-11-25T12:33:40.931Z,98952.20
2023-11-25T12:36:09.533Z,98951.40
2023-11-25T12:38:38.862Z,98958.20
2023-11-25T12:41:13.541Z,98955.40
2023-11-25T12:44:11.656Z,98955.80
2023-11-25T12:46:45.647Z,98955.40
2023-11-25T12:49:21.241Z,98948.20
2023-11-25T12:51:51.675Z,98944.20
2023-11-25T12:54:21.462Z,98947.40
2023-11-25T12:56:58.559Z,98949.80
2023-11-25T12:59:32.134Z,98954.80
2023-11-25T13:02:13.331Z,98964.20
2023-11-25T13:04:50.446Z,98966.40
2023-11-25T13:07:33.364Z,98966.20
2023-11-25T13:10:03.826Z,98968.60
2023-11-25T13:12:32.991Z,98970.00
2023-11-25T13:15:01.512Z,98973.60
2023-11-25T13:17:29.833Z,98980.20
2023-11-25T13:19:58.962Z,98986.80
2023-11-25T13:22:27.219Z,98986.40
2023-11-25T13:24:55.379Z,98994.00
2023-11-25T13:27:23.785Z,99003.20
2023-11-25T13:29:52.091Z,99004.80
2023-11-25T13:32:20.297Z,99011.80
2023-11-25T13:34:48.435Z,99024.00
2023-11-25T13:37:16.617Z,99027.60
2023-11-25T13:39:46.750Z,99028.60
2023-11-25T13:42:15.198Z,99032.00
2023-11-25T13:44:43.340Z,99036.20
2023-11-25T13:47:11.633Z,99049.20
2023-11-25T13:49:39.935Z,99050.60
2023-11-25T13:52:08.231Z,99057.40
2023-11-25T13:54:38.132Z,99054.80
2023-11-25T13:57:06.827Z,99060.60
2023-11-25T13:59:35.168Z,99064.20
2023-11-25T14:02:04.519Z,99073.20
2023-11-25T14:04:33.767Z,99073.20
2023-11-25T14:07:02.016Z,99072.00
2023-11-25T14:09:30.190Z,99074.40
2023-11-25T14:11:58.434Z,99080.00
2023-11-25T14:14:26.764Z,99076.40
2023-11-25T14:16:56.632Z,99084.40
2023-11-25T14:19:24.828Z,99095.20
2023-11-25T14:21:53.359Z,99099.80
2023-11-25T14:24:22.918Z,99105.40
2023-11-25T14:26:51.067Z,99104.00
2023-11-25T14:29:19.090Z,99110.60
2023-11-25T14:31:47.213Z,99112.60
2023-11-25T14:34:15.961Z,99114.40
2023-11-25T14:36:45.850Z,99117.80
2023-11-25T14:39:19.901Z,99122.80
2023-11-25T14:41:49.392Z,99119.80
2023-11-25T14:44:17.555Z,99124.40
2023-11-25T14:46:51.632Z,99129.80
2023-11-25T14:49:19.938Z,99131.00
2023-11-25T14:51:47.961Z,99139.40
2023-11-25T14:54:16.190Z,99138.40
2023-11-25T14:56:45.488Z,99141.60
2023-11-25T14:59:16.111Z,99143.60
2023-11-25T15:01:47.156Z,99144.40
2023-11-25T15:04:16.933Z,99147.40
2023-11-25T15:06:45.240Z,99156.40
2023-11-25T15:09:13.390Z,99159.00
2023-11-25T15:11:41.691Z,99156.20
2023-11-25T15:14:09.763Z,99161.80
2023-11-25T15:16:38.711Z,99164.80
2023-11-25T15:19:07.864Z,99163.80
2023-11-25T15:21:36.050Z,99165.00
2023-11-25T15:24:06.203Z,99173.20
2023-11-25T15:26:36.366Z,99173.20
2023-11-25T15:29:04.496Z,99172.80
2023-11-25T15:31:32.878Z,99172.40
2023-11-25T15:34:01.502Z,99169.40
2023-11-25T15:36:29.652Z,99165.00
2023-11-25T15:38:57.755Z,99167.20
2023-11-25T15:41:25.831Z,99163.60
2023-11-25T15:43:54.070Z,99174.20
2023-11-25T15:46:22.786Z,99169.60
2023-11-25T15:48:50.929Z,99171.00
2023-11-25T15:51:18.929Z,99174.60
2023-11-25T15:53:46.982Z,99176.20
2023-11-25T15:56:15.132Z,99175.20
2023-11-25T15:58:43.510Z,99174.40
2023-11-25T16:01:14.909Z,99177.80
2023-11-25T16:03:43.175Z,99189.40
2023-11-25T16:06:15.089Z,99185.20
2023-11-25T16:08:44.040Z,99186.20
2023-11-25T16:11:12.326Z,99186.20
2023-11-25T16:13:40.441Z,99196.80
2023-11-25T16:16:10.501Z,99198.60
2023-11-25T16:18:39.894Z,99200.00
2023-11-25T16:21:08.017Z,99207.20
2023-11-25T16:23:39.452Z,99210.20
2023-11-25T16:26:11.775Z,99210.80
2023-11-25T16:28:39.856Z,99214.20
2023-11-25T16:31:11.012Z,99215.20
2023-11-25T16:33:39.639Z,99216.60
2023-11-25T16:36:08.659Z,99215.20
2023-11-25T16:38:36.724Z,99218.40
2023-11-25T16:41:09.210Z,99223.60
2023-11-25T16:43:37.563Z,99229.00
2023-11-25T16:46:06.636Z,99226.00
2023-11-25T16:48:43.879Z,99223.40
2023-11-25T16:51:20.081Z,99230.80
2023-11-25T16:53:48.401Z,99230.20
2023-11-25T16:56:16.640Z,99235.20
2023-11-25T16:58:45.124Z,99241.00
2023-11-25T17:01:13.366Z,99241.00
2023-11-25T17:03:41.711Z,99242.60
2023-11-25T17:06:10.833Z,99249.60
2023-11-25T17:08:39.210Z,99253.60
2023-11-25T17:11:08.496Z,99248.40
2023-11-25T17:13:36.791Z,99251.40
2023-11-25T17:16:05.666Z,99253.80
2023-11-25T17:18:34.984Z,99254.00
2023-11-25T17:21:03.261Z,99257.60
2023-11-25T17:23:31.379Z,99259.60
2023-11-25T17:26:00.299Z,99256.80
2023-11-25T17:28:28.473Z,99260.00
2023-11-25T17:30:56.673Z,99259.00
2023-11-25T17:33:24.904Z,99261.80
2023-11-25T17:35:53.042Z,99264.80
2023-11-25T17:38:24.971Z,99262.40
2023-11-25T17:40:54.334Z,99268.80
2023-11-25T17:43:22.506Z,99269.00
2023-11-25T17:45:50.688Z,99274.20
2023-11-25T17:48:19.215Z,99276.00
2023-11-25T17:50:47.893Z,99281.20
2023-11-25T17:53:16.655Z,99279.40
2023-11-25T17:55:44.908Z,99281.20
2023-11-25T17:58:13.438Z,99284.00
2023-11-25T18:00:44.784Z,99281.40
2023-11-25T18:03:13.132Z,99282.00
2023-11-25T18:05:41.547Z,99277.60
2023-11-25T18:08:09.948Z,99283.20
2023-11-25T18:10:38.629Z,99285.80
2023-11-25T18:13:07.045Z,99294.00
2023-11-25T18:15:35.117Z,99302.00
2023-11-25T18:18:04.132Z,99307.20
2023-11-25T18:20:33.047Z,99319.60
2023-11-25T18:23:01.378Z,99322.80
2023-11-25T18:25:30.626Z,99329.80
2023-11-25T18:27:58.727Z,99329.00
2023-11-25T18:30:26.886Z,99326.20
2023-11-25T18:32:55.092Z,99329.80
2023-11-25T18:35:23.308Z,99348.00
2023-11-25T18:37:51.911Z,99352.00
2023-11-25T18:40:20.172Z,99357.80
2023-11-25T18:42:49.680Z,99372.00
2023-11-25T18:45:18.335Z,99370.60
2023-11-25T18:47:46.784Z,99375.00
2023-11-25T18:50:16.860Z,99377.40
2023-11-25T18:52:44.958Z,99383.40
2023-11-25T18:55:13.139Z,99382.40
2023-11-25T18:57:41.395Z,99378.80
2023-11-25T19:00:10.686Z,99371.20
2023-11-25T19:02:39.359Z,99373.80
2023-11-25T19:05:09.335Z,99374.60
2023-11-25T19:07:56.681Z,99375.80
2023-11-25T19:10:24.924Z,99379.40
2023-11-25T19:12:53.161Z,99381.00
2023-11-25T19:15:21.338Z,99375.80
2023-11-25T19:17:49.715Z,99381.80
2023-11-25T19:20:18.295Z,99376.40
2023-11-25T19:22:46.426Z,99384.40
2023-11-25T19:25:14.968Z,99385.00
2023-11-25T19:27:43.256Z,99387.80
2023-11-25T19:30:11.985Z,99390.40
2023-11-25T19:32:40.698Z,99388.00
2023-11-25T19:35:09.541Z,99387.40
2023-11-25T19:37:37.658Z,99395.00
2023-11-25T19:40:07.118Z,99386.40
2023-11-25T19:42:35.239Z,99393.40
2023-11-25T19:45:03.726Z,99391.40
2023-11-25T19:47:31.985Z,99395.40
2023-11-25T19:50:00.615Z,99399.80
2023-11-25T19:52:28.786Z,99404.20
2023-11-25T19:54:57.157Z,99411.20
2023-11-25T19:57:25.922Z,99431.60
2023-11-25T19:59:54.092Z,99434.00
2023-11-25T20:02:22.482Z,99437.40
2023-11-25T20:04:50.760Z,99442.00
2023-11-25T20:07:19.049Z,99436.80
2023-11-25T20:09:47.878Z,99439.40
2023-11-25T20:12:16.089Z,99434.40
2023-11-25T20:14:44.389Z,99432.20
2023-11-25T20:17:12.985Z,99435.80
2023-11-25T20:19:41.208Z,99427.80
2023-11-25T20:22:09.908Z,99429.20
2023-11-25T20:24:38.338Z,99430.00
2023-11-25T20:27:06.824Z,99433.60
2023-11-25T20:29:34.939Z,99439.80
2023-11-25T20:32:03.409Z,99434.80
2023-11-25T20:34:31.795Z,99442.20
2023-11-25T20:37:01.360Z,99447.20
2023-11-25T20:39:30.011Z,99444.40
2023-11-25T20:41:58.820Z,99450.80
2023-11-25T20:44:27.229Z,99456.40
2023-11-25T20:46:55.466Z,99461.40
2023-11-25T20:49:23.706Z,99460.00
2023-11-25T20:51:52.140Z,99466.60
2023-11-25T20:54:20.127Z,99468.60
2023-11-25T20:56:48.266Z,99464.60
2023-11-25T20:59:16.433Z,99459.40
2023-11-25T21:01:44.640Z,99464.80
2023-11-25T21:04:12.943Z,99465.00
2023-11-25T21:06:41.291Z,99464.00
2023-11-25T21:09:09.933Z,99463.80
2023-11-25T21:11:38.298Z,99460.60
2023-11-25T21:14:07.028Z,99452.00
2023-11-25T21:16:35.275Z,99452.20
2023-11-25T21:19:03.847Z,99458.40
2023-11-25T21:21:32.025Z,99446.80
2023-11-25T21:24:00.706Z,99460.60
2023-11-25T21:26:28.812Z,99469.20
2023-11-25T21:28:57.100Z,99470.80
2023-11-25T21:31:26.511Z,99460.80
2023-11-25T21:33:54.741Z,99454.60
2023-11-25T21:36:23.619Z,99452.80
2023-11-25T21:38:51.796Z,99458.40
2023-11-25T21:41:20.071Z,99449.80
2023-11-25T21:43:48.215Z,99452.40
2023-11-25T21:46:16.432Z,99453.40
2023-11-25T21:48:44.588Z,99445.60
2023-11-25T21:51:15.196Z,99452.60
2023-11-25T21:53:43.398Z,99456.20
2023-11-25T21:56:12.550Z,99460.80
2023-11-25T21:58:40.893Z,99468.60
2023-11-25T22:01:09.898Z,99462.80
2023-11-25T22:03:41.435Z,99467.00
2023-11-25T22:06:10.308Z,99472.20
2023-11-25T22:08:38.380Z,99477.20
2023-11-25T22:11:07.813Z,99483.00
2023-11-25T22:13:36.009Z,99490.00
2023-11-25T22:16:05.497Z,99491.80
2023-11-25T22:18:33.655Z,99489.20
2023-11-25T22:21:23.352Z,99493.40
2023-11-25T22:23:51.507Z,99490.40
2023-11-25T22:26:36.462Z,99495.00
2023-11-25T22:29:05.749Z,99491.20
2023-11-25T22:31:34.543Z,99491.60
2023-11-25T22:34:02.698Z,99492.20
2023-11-25T22:36:32.838Z,99494.40
2023-11-25T22:39:00.921Z,99498.60
2023-11-25T22:41:29.116Z,99499.40
2023-11-25T22:43:57.424Z,99496.00
2023-11-25T22:46:26.548Z,99495.00
2023-11-25T22:48:54.741Z,99490.20
2023-11-25T22:51:25.180Z,99492.80
2023-11-25T22:53:54.714Z,99490.40
2023-11-25T22:56:23.040Z,99491.00
2023-11-25T22:58:51.533Z,99485.60
2023-11-25T23:01:29.398Z,99484.40
2023-11-25T23:03:58.981Z,99482.40
2023-11-25T23:06:32.220Z,99487.00
2023-11-25T23:09:00.223Z,99483.20
2023-11-25T23:11:28.585Z,99486.20
2023-11-25T23:13:56.905Z,99491.40
2023-11-25T23:16:25.148Z,99493.80
2023-11-25T23:18:53.715Z,99493.80
2023-11-25T23:21:23.006Z,99496.00
2023-11-25T23:23:51.176Z,99498.20
2023-11-25T23:26:19.656Z,99488.00
2023-11-25T23:28:48.043Z,99479.40
2023-11-25T23:31:16.051Z,99472.60
2023-11-25T23:33:44.383Z,99485.60
2023-11-25T23:36:12.781Z,99493.60
2023-11-25T23:38:41.858Z,99494.20
2023-11-25T23:41:11.178Z,99499.20
2023-11-25T23:43:39.771Z,99506.20
2023-11-25T23:46:07.976Z,99519.00
2023-11-25T23:48:36.922Z,99519.00
2023-11-25T23:51:06.612Z,99529.40
2023-11-25T23:53:34.947Z,99527.80
2023-11-25T23:56:02.994Z,99529.00
2023-11-25T23:58:31.342Z,99529.20
